Portada
METAR-TAF:

METAR-TAF

Aeroports :

Kununurra, Austràlia

latitud: 15-46S, longitud: 128-42E, altitud: 44 m

Observació

L'informe es va fer fa 33 minuts, a les 11:30 UTC
Vent 7 kt del Nord
Temperatura 32°C
Humitat 46%
Pressió 1008 hPa
Visibilitat 10 km o més

METAR: YPKU 231130Z AUTO 35007KT 9999 // NCD 32/19 Q1008 RF00.0/000.0

Hora: 20:03 (12:03 UTC)

Pronòstic

L'informe es va fer fa 5 hores i 57 minuts, a les 06:06 UTC
Pronòstic vàlid del 23 a les 08 UTC al 23 a les 20 UTC
Vent 10 kt del Nord/Nord-Oest
Visibilitat 10 km o més
sense núvols per sota de 1500 mi sense presència de cumulonimbus.
Probabilitat 30% :
Temporalment
l' 23 a les 08 UTC al 23 a les 14 UTC
Vent 20 kt amb direcció variable amb ràfegues de 30 kt
Visibilitat: 2000 m
Núvols disperses a una alçada de 2000 ft
Núvols disperses a una alçada de 9000 ft, Cumulonimbus.
tempesta, pluja

TAF: YPKU 230606Z 2308/2320 34010KT CAVOK PROB30 TEMPO 2308/2314 VRB20G30KT 2000 TSRA SCT020 SCT090CB

Observacions i pronòstics meteorològics de més de 4000 aeroports (METAR i TAF).

Les estacions disponibles són els punts grocs i vermells al mapa.

Posi el ratolí al punt desitjat per veure el nom de l'estació.

Feu clic per veure les observacions i els pronòstics meteorològics.

Per canviar el mapa: feu clic els botons verds amb una creu de color negre per apropar; al botó verd amb un guió per allunyar la imatge; o en les fletxes verdes per a mapes adjacents.


METAR-TAF: